createdAt,value
2017-05-05T00:00:26.106Z,0
2017-05-05T00:02:26.148Z,0
2017-05-05T00:03:40.791Z,0
2017-05-05T00:04:25.578Z,0
2017-05-05T00:05:25.904Z,0
2017-05-05T00:06:25.922Z,0
2017-05-05T00:07:25.944Z,0
2017-05-05T00:08:25.965Z,0
2017-05-05T00:09:25.999Z,0
2017-05-05T00:11:26.328Z,0
2017-05-05T00:12:40.363Z,0
2017-05-05T00:13:26.066Z,0
2017-05-05T00:14:26.086Z,0
2017-05-05T00:15:41.026Z,0
2017-05-05T00:16:26.130Z,0
2017-05-05T00:17:25.846Z,0
2017-05-05T00:18:41.091Z,0
2017-05-05T00:20:25.907Z,0
2017-05-05T00:21:26.235Z,0
2017-05-05T00:22:26.558Z,0
2017-05-05T00:23:25.968Z,0
2017-05-05T00:24:26.598Z,0
2017-05-05T00:25:26.619Z,0
2017-05-05T00:26:26.335Z,0
2017-05-05T00:27:41.271Z,0
2017-05-05T00:28:26.678Z,0
2017-05-05T00:29:26.694Z,0
2017-05-05T00:30:26.718Z,0
2017-05-05T00:31:26.759Z,0
2017-05-05T00:32:41.372Z,0
2017-05-05T00:33:26.782Z,0
2017-05-05T00:34:41.416Z,0
2017-05-05T00:35:26.822Z,0
2017-05-05T00:36:26.835Z,0
2017-05-05T00:37:26.857Z,0
2017-05-05T00:38:26.884Z,0
2017-05-05T00:39:26.897Z,0
2017-05-05T00:40:26.923Z,0
2017-05-05T00:41:26.939Z,0
2017-05-05T00:42:26.959Z,0
2017-05-05T00:43:26.983Z,0
2017-05-05T00:44:41.615Z,0
2017-05-05T00:45:27.023Z,0
2017-05-05T00:46:27.048Z,0
2017-05-05T00:47:41.678Z,0
2017-05-05T00:48:27.080Z,0
2017-05-05T00:49:27.101Z,0
2017-05-05T00:50:41.735Z,0
2017-05-05T00:51:26.843Z,0
2017-05-05T00:53:27.181Z,0
2017-05-05T00:54:27.205Z,0
2017-05-05T00:55:27.223Z,0
2017-05-05T00:56:27.246Z,0
2017-05-05T00:57:41.887Z,0
2017-05-05T00:58:41.901Z,0
2017-05-05T00:59:27.309Z,0
2017-05-05T01:00:27.326Z,0
2017-05-05T01:01:27.349Z,0
2017-05-05T01:02:27.363Z,0
2017-05-05T01:03:42.001Z,0
2017-05-05T01:05:27.423Z,0
2017-05-05T01:06:42.062Z,0
2017-05-05T01:07:27.467Z,0
2017-05-05T01:08:27.485Z,0
2017-05-05T01:09:27.505Z,0
2017-05-05T01:10:27.530Z,0
2017-05-05T01:11:27.548Z,0
2017-05-05T01:12:27.568Z,0
2017-05-05T01:13:27.596Z,0
2017-05-05T01:14:42.224Z,0
2017-05-05T01:15:42.244Z,0
2017-05-05T01:16:27.647Z,0
2017-05-05T01:17:42.284Z,0
2017-05-05T01:18:27.692Z,0
2017-05-05T01:20:27.735Z,0
2017-05-05T01:21:42.367Z,0
2017-05-05T01:22:27.779Z,0
2017-05-05T01:23:27.793Z,0
2017-05-05T01:24:27.842Z,0
2017-05-05T01:25:27.835Z,0
2017-05-05T01:26:27.852Z,0
2017-05-05T01:27:27.876Z,0
2017-05-05T01:28:27.590Z,0
2017-05-05T01:29:27.914Z,0
2017-05-05T01:30:27.932Z,0
2017-05-05T01:31:42.569Z,0
2017-05-05T01:32:28.003Z,0
2017-05-05T01:33:27.999Z,0
2017-05-05T01:35:27.731Z,0
2017-05-05T01:36:27.751Z,0
2017-05-05T01:37:27.776Z,0
2017-05-05T01:38:27.793Z,0
2017-05-05T01:39:28.124Z,0
2017-05-05T01:40:27.831Z,0
2017-05-05T01:41:28.157Z,0
2017-05-05T01:42:27.872Z,0
2017-05-05T01:43:28.198Z,0
2017-05-05T01:44:27.918Z,0
2017-05-05T01:45:28.240Z,0
2017-05-05T01:46:42.875Z,0
2017-05-05T01:47:28.277Z,0
2017-05-05T01:48:28.300Z,0
2017-05-05T01:49:28.320Z,0
2017-05-05T01:50:28.034Z,0
2017-05-05T01:51:28.055Z,0
2017-05-05T01:52:28.384Z,0
2017-05-05T01:53:43.017Z,0
2017-05-05T01:54:28.427Z,0
2017-05-05T01:55:28.137Z,0
2017-05-05T01:56:28.461Z,0
2017-05-05T01:57:28.482Z,0
2017-05-05T01:58:28.807Z,0
2017-05-05T01:59:28.525Z,0
2017-05-05T02:00:28.544Z,0
2017-05-05T02:01:28.565Z,0
2017-05-05T02:02:43.200Z,0
2017-05-05T02:03:28.606Z,0
2017-05-05T02:04:28.626Z,0
2017-05-05T02:05:28.645Z,0
2017-05-05T02:06:43.280Z,0
2017-05-05T02:07:28.381Z,0
2017-05-05T02:08:28.405Z,0
2017-05-05T02:09:43.345Z,0
2017-05-05T02:10:28.746Z,0
2017-05-05T02:11:28.768Z,0
2017-05-05T02:12:28.486Z,0
2017-05-05T02:13:28.809Z,0
2017-05-05T02:14:28.828Z,0
2017-05-05T02:15:28.544Z,0
2017-05-05T02:16:28.869Z,0
2017-05-05T02:17:28.889Z,0
2017-05-05T02:18:28.912Z,0
2017-05-05T02:19:28.930Z,0
2017-05-05T02:20:28.646Z,0
2017-05-05T02:21:28.970Z,0
2017-05-05T02:22:43.605Z,0
2017-05-05T02:23:29.011Z,0
2017-05-05T02:24:29.034Z,0
2017-05-05T02:25:43.667Z,0
2017-05-05T02:26:29.072Z,0
2017-05-05T02:27:29.101Z,0
2017-05-05T02:28:28.815Z,0
2017-05-05T02:29:43.147Z,0
2017-05-05T02:30:43.470Z,0
2017-05-05T02:31:29.172Z,0
2017-05-05T02:32:28.891Z,0
2017-05-05T02:33:29.214Z,0
2017-05-05T02:34:29.238Z,0
2017-05-05T02:36:29.277Z,0
2017-05-05T02:37:28.994Z,0
2017-05-05T02:38:29.315Z,0
2017-05-05T02:39:29.345Z,0
2017-05-05T02:40:29.356Z,0
2017-05-05T02:41:43.994Z,0
2017-05-05T02:42:29.395Z,0
2017-05-05T02:43:29.421Z,0
2017-05-05T02:44:29.443Z,0
2017-05-05T02:45:29.461Z,0
2017-05-05T02:46:29.484Z,0
2017-05-05T02:47:29.500Z,0
2017-05-05T02:48:29.523Z,0
2017-05-05T02:49:29.543Z,0
2017-05-05T02:50:29.563Z,0
2017-05-05T02:51:44.199Z,0
2017-05-05T02:52:29.605Z,0
2017-05-05T02:53:44.241Z,0
2017-05-05T02:54:29.647Z,0
2017-05-05T02:55:29.666Z,0
2017-05-05T02:56:44.302Z,0
2017-05-05T02:57:29.705Z,0
2017-05-05T02:58:29.754Z,0
2017-05-05T02:59:29.745Z,0
2017-05-05T03:00:29.765Z,0
2017-05-05T03:01:29.789Z,0
2017-05-05T03:02:29.805Z,0
2017-05-05T03:03:29.825Z,0
2017-05-05T03:04:29.856Z,0
2017-05-05T03:05:29.869Z,0
2017-05-05T03:06:29.891Z,0
2017-05-05T03:07:29.909Z,4
2017-05-05T03:08:44.551Z,4
2017-05-05T03:09:29.650Z,4
2017-05-05T03:10:29.974Z,4
2017-05-05T03:11:29.995Z,4
2017-05-05T03:12:30.016Z,0
2017-05-05T03:13:30.034Z,4
2017-05-05T03:14:30.060Z,4
2017-05-05T03:15:30.103Z,8
2017-05-05T03:16:29.787Z,4
2017-05-05T03:17:29.811Z,8
2017-05-05T03:18:30.143Z,8
2017-05-05T03:19:30.161Z,8
2017-05-05T03:20:29.871Z,8
2017-05-05T03:21:30.204Z,12
2017-05-05T03:22:29.914Z,12
2017-05-05T03:24:44.873Z,16
2017-05-05T03:25:29.973Z,16
2017-05-05T03:27:30.013Z,20
2017-05-05T03:28:44.956Z,24
2017-05-05T03:29:30.061Z,24
2017-05-05T03:30:30.077Z,28
2017-05-05T03:31:30.399Z,28
2017-05-05T03:32:29.819Z,32
2017-05-05T03:33:29.836Z,32
2017-05-05T03:34:30.464Z,32
2017-05-05T03:35:45.100Z,36
2017-05-05T03:36:30.501Z,32
2017-05-05T03:37:30.532Z,28
2017-05-05T03:38:30.545Z,32
2017-05-05T03:39:30.565Z,32
2017-05-05T03:40:30.586Z,40
2017-05-05T03:42:30.624Z,48
2017-05-05T03:43:30.649Z,56
2017-05-05T03:44:45.281Z,56
2017-05-05T03:45:30.690Z,60
2017-05-05T03:46:30.706Z,64
2017-05-05T03:47:30.729Z,68
2017-05-05T03:48:30.748Z,68
2017-05-05T03:49:30.766Z,72
2017-05-05T03:50:30.788Z,76
2017-05-05T03:51:30.814Z,88
2017-05-05T03:52:30.828Z,96
2017-05-05T03:53:30.852Z,108
2017-05-05T03:54:30.872Z,128
2017-05-05T03:56:45.527Z,152
2017-05-05T03:57:30.931Z,164
2017-05-05T03:58:30.956Z,168
2017-05-05T03:59:30.975Z,164
2017-05-05T04:00:45.609Z,156
2017-05-05T04:01:31.011Z,160
2017-05-05T04:02:45.662Z,164
2017-05-05T04:03:31.052Z,164
2017-05-05T04:04:31.078Z,180
2017-05-05T04:05:31.094Z,180
2017-05-05T04:06:31.118Z,168
2017-05-05T04:07:31.144Z,160
2017-05-05T04:08:31.167Z,156
2017-05-05T04:09:31.183Z,152
2017-05-05T04:10:45.821Z,140
2017-05-05T04:11:31.218Z,144
2017-05-05T04:12:31.246Z,160
2017-05-05T04:13:30.956Z,172
2017-05-05T04:14:30.979Z,180
2017-05-05T04:15:31.304Z,200
2017-05-05T04:16:45.938Z,216
2017-05-05T04:17:31.346Z,224
2017-05-05T04:18:31.091Z,228
2017-05-05T04:19:31.083Z,232
2017-05-05T04:20:31.407Z,228
2017-05-05T04:21:31.120Z,220
2017-05-05T04:22:31.468Z,224
2017-05-05T04:23:31.466Z,228
2017-05-05T04:24:46.102Z,240
2017-05-05T04:26:46.142Z,288
2017-05-05T04:27:31.554Z,304
2017-05-05T04:28:31.570Z,296
2017-05-05T04:29:31.591Z,308
2017-05-05T04:30:31.612Z,308
2017-05-05T04:31:46.246Z,296
2017-05-05T04:32:31.650Z,296
2017-05-05T04:33:31.675Z,304
2017-05-05T04:34:31.692Z,288
2017-05-05T04:35:31.716Z,264
2017-05-05T04:36:31.732Z,264
2017-05-05T04:37:31.751Z,264
2017-05-05T04:38:31.771Z,276
2017-05-05T04:39:31.792Z,276
2017-05-05T04:40:31.812Z,296
2017-05-05T04:41:46.450Z,332
2017-05-05T04:42:31.862Z,360
2017-05-05T04:43:31.875Z,384
2017-05-05T04:45:31.614Z,408
2017-05-05T04:46:31.638Z,408
2017-05-05T04:47:31.652Z,384
2017-05-05T04:48:31.696Z,400
2017-05-05T04:49:32.001Z,436
2017-05-05T04:50:31.718Z,480
2017-05-05T04:52:32.058Z,616
2017-05-05T04:53:32.081Z,696
2017-05-05T04:54:32.104Z,756
2017-05-05T04:55:32.125Z,816
2017-05-05T04:56:32.139Z,840
2017-05-05T04:57:32.166Z,864
2017-05-05T04:59:32.204Z,892
2017-05-05T05:00:32.224Z,816
2017-05-05T05:01:32.243Z,748
2017-05-05T05:02:31.657Z,756
2017-05-05T05:03:46.900Z,768
2017-05-05T05:04:32.310Z,792
2017-05-05T05:05:32.328Z,832
2017-05-05T05:06:32.348Z,904
2017-05-05T05:07:32.371Z,968
2017-05-05T05:08:46.706Z,956
2017-05-05T05:09:47.025Z,908
2017-05-05T05:10:31.827Z,884
2017-05-05T05:11:32.481Z,888
2017-05-05T05:12:32.471Z,860
2017-05-05T05:13:32.492Z,864
2017-05-05T05:14:47.126Z,852
2017-05-05T05:15:47.151Z,764
2017-05-05T05:16:32.555Z,716
2017-05-05T05:18:32.594Z,640
2017-05-05T05:19:47.232Z,652
2017-05-05T05:20:32.636Z,644
2017-05-05T05:21:32.655Z,664
2017-05-05T05:22:32.676Z,652
2017-05-05T05:23:32.697Z,640
2017-05-05T05:24:32.721Z,640
2017-05-05T05:25:32.737Z,620
2017-05-05T05:26:32.762Z,600
2017-05-05T05:27:32.785Z,584
2017-05-05T05:28:32.800Z,576
2017-05-05T05:29:47.437Z,592
2017-05-05T05:31:32.863Z,588
2017-05-05T05:32:47.498Z,632
2017-05-05T05:33:32.903Z,684
2017-05-05T05:34:32.924Z,748
2017-05-05T05:35:47.566Z,808
2017-05-05T05:36:32.974Z,828
2017-05-05T05:37:47.610Z,852
2017-05-05T05:38:33.016Z,852
2017-05-05T05:39:33.028Z,828
2017-05-05T05:40:33.048Z,820
2017-05-05T05:41:33.068Z,892
2017-05-05T05:42:33.110Z,1004
2017-05-05T05:43:33.109Z,1104
2017-05-05T05:44:47.747Z,1296
2017-05-05T05:45:33.155Z,1448
2017-05-05T05:46:33.174Z,1616
2017-05-05T05:47:33.195Z,1772
2017-05-05T05:48:33.218Z,1968
2017-05-05T05:49:33.234Z,2164
2017-05-05T05:50:33.261Z,2272
2017-05-05T05:51:47.892Z,2404
2017-05-05T05:52:33.294Z,2464
2017-05-05T05:53:33.321Z,2448
2017-05-05T05:54:33.340Z,2504
2017-05-05T05:55:33.355Z,2504
2017-05-05T05:56:33.383Z,2512
2017-05-05T05:57:33.397Z,2556
2017-05-05T05:58:48.040Z,2540
2017-05-05T05:59:33.445Z,2504
2017-05-05T06:00:48.078Z,2416
2017-05-05T06:01:33.483Z,2432
2017-05-05T06:02:33.504Z,2404
2017-05-05T06:03:33.522Z,2348
2017-05-05T06:04:33.552Z,2340
2017-05-05T06:05:33.567Z,2232
2017-05-05T06:06:48.205Z,2164
2017-05-05T06:07:33.611Z,2136
2017-05-05T06:08:33.632Z,2064
2017-05-05T06:09:33.660Z,2052
2017-05-05T06:10:33.671Z,2028
2017-05-05T06:11:33.693Z,2132
2017-05-05T06:12:33.713Z,2292
2017-05-05T06:13:33.740Z,2444
2017-05-05T06:14:33.761Z,2672
2017-05-05T06:15:33.776Z,2916
2017-05-05T06:16:33.798Z,3172
2017-05-05T06:17:33.519Z,3432
2017-05-05T06:18:33.838Z,3720
2017-05-05T06:19:33.871Z,4072
2017-05-05T06:20:33.881Z,4216
2017-05-05T06:21:33.601Z,4128
2017-05-05T06:22:33.926Z,3900
2017-05-05T06:23:33.950Z,3948
2017-05-05T06:24:33.964Z,3860
2017-05-05T06:25:33.988Z,3704
2017-05-05T06:26:34.014Z,3328
2017-05-05T06:27:34.034Z,3148
2017-05-05T06:28:34.055Z,3228
2017-05-05T06:29:34.077Z,3280
2017-05-05T06:30:34.091Z,3216
2017-05-05T06:31:48.730Z,3024
2017-05-05T06:32:48.749Z,2784
2017-05-05T06:33:34.161Z,2628
2017-05-05T06:35:34.195Z,2396
2017-05-05T06:36:34.222Z,2240
2017-05-05T06:38:48.573Z,2056
2017-05-05T06:39:34.285Z,2084
2017-05-05T06:40:34.305Z,2368
2017-05-05T06:41:34.327Z,2656
2017-05-05T06:42:34.049Z,2656
2017-05-05T06:43:34.368Z,2644
2017-05-05T06:44:34.394Z,2556
2017-05-05T06:45:34.442Z,2448
2017-05-05T06:46:49.048Z,2392
2017-05-05T06:47:34.458Z,2448
2017-05-05T06:48:34.168Z,2524
2017-05-05T06:49:34.494Z,2476
2017-05-05T06:50:34.522Z,2416
2017-05-05T06:51:34.540Z,2400
2017-05-05T06:52:34.568Z,2528
2017-05-05T06:54:49.222Z,3004
2017-05-05T06:55:34.628Z,3012
2017-05-05T06:56:34.342Z,2940
2017-05-05T06:57:34.362Z,2920
2017-05-05T06:58:34.690Z,2896
2017-05-05T06:59:34.709Z,2860
2017-05-05T07:00:34.731Z,2784
2017-05-05T07:01:34.461Z,2688
2017-05-05T07:02:34.775Z,2736
2017-05-05T07:03:34.796Z,2888
2017-05-05T07:04:49.129Z,3076
2017-05-05T07:05:34.840Z,3120
2017-05-05T07:07:34.880Z,3280
2017-05-05T07:08:34.604Z,3164
2017-05-05T07:10:49.563Z,2772
2017-05-05T07:11:34.968Z,2692
2017-05-05T07:12:34.989Z,2612
2017-05-05T07:13:35.039Z,2616
2017-05-05T07:14:49.672Z,2548
2017-05-05T07:15:35.073Z,2488
2017-05-05T07:16:34.790Z,2460
2017-05-05T07:17:49.716Z,2480
2017-05-05T07:18:35.120Z,2484
2017-05-05T07:19:35.146Z,2460
2017-05-05T07:20:35.166Z,2444
2017-05-05T07:21:35.188Z,2448
2017-05-05T07:23:35.232Z,2416
2017-05-05T07:25:35.268Z,2316
2017-05-05T07:26:49.911Z,2240
2017-05-05T07:29:35.357Z,2156
2017-05-05T07:30:35.380Z,2124
2017-05-05T07:31:35.401Z,2108
2017-05-05T07:32:50.042Z,2096
2017-05-05T07:33:35.440Z,2092
2017-05-05T07:34:50.082Z,2092
2017-05-05T07:35:35.485Z,2100
2017-05-05T07:36:50.124Z,2080
2017-05-05T07:37:35.526Z,2036
2017-05-05T07:38:35.559Z,1932
2017-05-05T07:40:35.618Z,1756
2017-05-05T07:41:50.235Z,1768
2017-05-05T07:43:35.665Z,1908
2017-05-05T07:44:35.679Z,2008
2017-05-05T07:45:35.734Z,2096
2017-05-05T07:46:35.724Z,2156
2017-05-05T07:47:35.751Z,2208
2017-05-05T07:48:35.768Z,2236
2017-05-05T07:49:35.800Z,2240
2017-05-05T07:50:35.810Z,2244
2017-05-05T07:52:35.855Z,2216
2017-05-05T07:53:35.879Z,2216
2017-05-05T07:54:35.898Z,2244
2017-05-05T07:55:35.919Z,2324
2017-05-05T07:57:35.964Z,2544
2017-05-05T07:58:35.992Z,2588
2017-05-05T07:59:36.007Z,2536
2017-05-05T08:00:36.055Z,2452
2017-05-05T08:01:35.751Z,2392
2017-05-05T08:02:36.078Z,2364
2017-05-05T08:03:50.714Z,2384
2017-05-05T08:04:36.121Z,2424
2017-05-05T08:05:36.147Z,2508
2017-05-05T08:06:36.162Z,2636
2017-05-05T08:07:36.182Z,2788
2017-05-05T08:08:36.206Z,2964
2017-05-05T08:10:35.641Z,3400
2017-05-05T08:11:36.271Z,3572
2017-05-05T08:12:36.291Z,3652
2017-05-05T08:13:50.930Z,3672
2017-05-05T08:14:36.337Z,3656
2017-05-05T08:15:36.358Z,3612
2017-05-05T08:16:36.377Z,3604
2017-05-05T08:17:36.401Z,3624
2017-05-05T08:18:36.426Z,3620
2017-05-05T08:19:36.449Z,3592
2017-05-05T08:20:36.466Z,3568
2017-05-05T08:21:36.184Z,3528
2017-05-05T08:22:35.904Z,3488
2017-05-05T08:23:36.546Z,3420
2017-05-05T08:24:36.575Z,3308
2017-05-05T08:25:36.585Z,3136
2017-05-05T08:26:36.599Z,2948
2017-05-05T08:29:51.287Z,2824
2017-05-05T08:30:36.697Z,2808
2017-05-05T08:31:36.715Z,2808
2017-05-05T08:32:36.733Z,2832
2017-05-05T08:33:36.453Z,2852
2017-05-05T08:34:36.497Z,2888
2017-05-05T08:35:36.493Z,2984
2017-05-05T08:36:36.524Z,3172
2017-05-05T08:37:36.540Z,3516
2017-05-05T08:38:36.866Z,3932
2017-05-05T08:39:36.585Z,4372
2017-05-05T08:40:36.909Z,4772
2017-05-05T08:42:36.653Z,5100
2017-05-05T08:43:36.678Z,5008
2017-05-05T08:44:36.693Z,4764
2017-05-05T08:45:51.640Z,4352
2017-05-05T08:47:37.064Z,3812
2017-05-05T08:48:37.088Z,3588
2017-05-05T08:49:36.806Z,3428
2017-05-05T08:50:37.131Z,3340
2017-05-05T08:51:37.151Z,3284
2017-05-05T08:53:37.204Z,3360
2017-05-05T08:54:51.837Z,3480
2017-05-05T08:55:37.247Z,3540
2017-05-05T08:56:37.265Z,3596
2017-05-05T08:57:37.290Z,3636
2017-05-05T08:59:37.338Z,3632
2017-05-05T09:00:37.353Z,3660
2017-05-05T09:01:51.997Z,3728
2017-05-05T09:02:37.422Z,3824
2017-05-05T09:03:37.421Z,4060
2017-05-05T09:04:37.167Z,4336
2017-05-05T09:05:37.473Z,4636
2017-05-05T09:06:37.489Z,5016
2017-05-05T09:07:37.512Z,5352
2017-05-05T09:08:37.537Z,5588
2017-05-05T09:09:37.553Z,5804
2017-05-05T09:10:52.195Z,6048
2017-05-05T09:11:37.599Z,6260
2017-05-05T09:14:37.679Z,7464
2017-05-05T09:15:37.390Z,7476
2017-05-05T09:16:52.352Z,7304
2017-05-05T09:17:37.738Z,7136
2017-05-05T09:18:37.455Z,6804
2017-05-05T09:19:37.814Z,6264
2017-05-05T09:20:37.520Z,5692
2017-05-05T09:21:37.830Z,5272
2017-05-05T09:22:37.855Z,5016
2017-05-05T09:24:37.897Z,4628
2017-05-05T09:25:52.537Z,4556
2017-05-05T09:26:37.636Z,4560
2017-05-05T09:27:37.968Z,4644
2017-05-05T09:28:37.988Z,4852
2017-05-05T09:29:37.708Z,5216
2017-05-05T09:30:37.730Z,5672
2017-05-05T09:31:52.702Z,6360
2017-05-05T09:32:37.777Z,6684
2017-05-05T09:33:38.102Z,6928
2017-05-05T09:34:38.129Z,6908
2017-05-05T09:35:38.149Z,6688
2017-05-05T09:36:38.178Z,6360
2017-05-05T09:37:38.207Z,6016
2017-05-05T09:38:38.217Z,5716
2017-05-05T09:39:38.244Z,5576
2017-05-05T09:40:37.957Z,5516
2017-05-05T09:41:38.285Z,5484
2017-05-05T09:42:52.924Z,5408
2017-05-05T09:43:52.951Z,5360
2017-05-05T09:44:38.353Z,5348
2017-05-05T09:45:38.379Z,5360
2017-05-05T09:46:38.401Z,5392
2017-05-05T09:47:38.432Z,5436
2017-05-05T09:48:52.759Z,5544
2017-05-05T09:49:38.473Z,5708
2017-05-05T09:50:38.495Z,5836
2017-05-05T09:51:38.516Z,5816
2017-05-05T09:52:38.538Z,5760
2017-05-05T09:53:38.564Z,5744
2017-05-05T09:54:38.284Z,5780
2017-05-05T09:55:38.615Z,5864
2017-05-05T09:56:38.634Z,6040
2017-05-05T09:57:38.659Z,6264
2017-05-05T09:58:53.299Z,6360
2017-05-05T10:00:38.730Z,6016
2017-05-05T10:01:38.750Z,5760
2017-05-05T10:03:38.489Z,5220
2017-05-05T10:04:53.434Z,5200
2017-05-05T10:05:38.837Z,5336
2017-05-05T10:06:38.562Z,5664
2017-05-05T10:07:38.888Z,6160
2017-05-05T10:08:53.530Z,6836
2017-05-05T10:09:38.934Z,7212
2017-05-05T10:10:38.954Z,7520
2017-05-05T10:11:53.291Z,7444
2017-05-05T10:12:39.006Z,7156
2017-05-05T10:13:53.641Z,6488
2017-05-05T10:14:39.054Z,6080
2017-05-05T10:16:39.114Z,5028
2017-05-05T10:17:39.117Z,4680
2017-05-05T10:18:39.152Z,4344
2017-05-05T10:19:39.162Z,4040
2017-05-05T10:20:53.615Z,3800
2017-05-05T10:21:39.209Z,3748
2017-05-05T10:24:38.975Z,3976
2017-05-05T10:25:39.300Z,4088
2017-05-05T10:26:39.325Z,4220
2017-05-05T10:27:39.352Z,4276
2017-05-05T10:28:39.074Z,4328
2017-05-05T10:29:39.395Z,4404
2017-05-05T10:30:39.427Z,4508
2017-05-05T10:31:39.442Z,4612
2017-05-05T10:32:39.470Z,4680
2017-05-05T10:33:39.206Z,4668
2017-05-05T10:34:39.514Z,4604
2017-05-05T10:35:54.149Z,4456
2017-05-05T10:36:54.174Z,4384
2017-05-05T10:38:39.611Z,4516
2017-05-05T10:39:39.626Z,4624
2017-05-05T10:40:39.648Z,4660
2017-05-05T10:41:39.672Z,4608
2017-05-05T10:42:39.694Z,4540
2017-05-05T10:43:39.718Z,4384
2017-05-05T10:44:39.443Z,4200
2017-05-05T10:45:54.382Z,3924
2017-05-05T10:46:39.484Z,3756
2017-05-05T10:47:39.810Z,3604
2017-05-05T10:48:39.834Z,3548
2017-05-05T10:49:39.860Z,3572
2017-05-05T10:50:39.576Z,3648
2017-05-05T10:51:54.522Z,3764
2017-05-05T10:53:39.953Z,3836
2017-05-05T10:54:39.973Z,3960
2017-05-05T10:55:39.996Z,4152
2017-05-05T10:56:40.022Z,4348
2017-05-05T10:57:40.044Z,4524
2017-05-05T10:58:40.068Z,4732
2017-05-05T10:59:40.088Z,4892
2017-05-05T11:00:40.111Z,5008
2017-05-05T11:01:54.751Z,4996
2017-05-05T11:02:40.158Z,4992
2017-05-05T11:04:40.202Z,5216
2017-05-05T11:05:40.230Z,5428
2017-05-05T11:06:40.258Z,5532
2017-05-05T11:07:40.280Z,5156
2017-05-05T11:08:40.308Z,4800
2017-05-05T11:09:40.319Z,5092
2017-05-05T11:10:40.342Z,5340
2017-05-05T11:11:40.369Z,5384
2017-05-05T11:12:40.387Z,5208
2017-05-05T11:13:40.412Z,4932
2017-05-05T11:14:40.434Z,4700
2017-05-05T11:15:40.458Z,4524
2017-05-05T11:16:40.485Z,4432
2017-05-05T11:17:40.505Z,4364
2017-05-05T11:18:40.529Z,4296
2017-05-05T11:19:40.556Z,4484
2017-05-05T11:21:40.297Z,4924
2017-05-05T11:23:54.958Z,4960
2017-05-05T11:24:40.669Z,5016
2017-05-05T11:25:40.386Z,5064
2017-05-05T11:26:40.416Z,5044
2017-05-05T11:27:40.437Z,5012
2017-05-05T11:29:40.784Z,5136
2017-05-05T11:30:40.504Z,5252
2017-05-05T11:31:55.447Z,5288
2017-05-05T11:32:40.851Z,5216
2017-05-05T11:33:40.575Z,5008
2017-05-05T11:34:40.900Z,4772
2017-05-05T11:35:40.923Z,4572
2017-05-05T11:36:40.947Z,4440
2017-05-05T11:37:40.971Z,4408
2017-05-05T11:39:55.634Z,4588
2017-05-05T11:40:41.042Z,4644
2017-05-05T11:41:40.770Z,4696
2017-05-05T11:42:41.089Z,4740
2017-05-05T11:43:41.120Z,4732
2017-05-05T11:44:41.136Z,4612
2017-05-05T11:45:41.158Z,4412
2017-05-05T11:46:55.799Z,4208
2017-05-05T11:47:41.206Z,4128
2017-05-05T11:48:40.927Z,4048
2017-05-05T11:49:41.251Z,3984
2017-05-05T11:50:55.890Z,3904
2017-05-05T11:52:41.322Z,3812
2017-05-05T11:53:41.341Z,3784
2017-05-05T11:54:41.070Z,3792
2017-05-05T11:55:56.007Z,3868
2017-05-05T11:56:41.415Z,3956
2017-05-05T11:57:41.446Z,4108
2017-05-05T11:58:41.464Z,4284
2017-05-05T12:00:41.511Z,4424
2017-05-05T12:01:41.534Z,4340
2017-05-05T12:02:41.558Z,4216
2017-05-05T12:03:56.197Z,4100
2017-05-05T12:04:41.601Z,4068
2017-05-05T12:05:41.330Z,4056
2017-05-05T12:06:56.264Z,4032
2017-05-05T12:07:41.370Z,3976
2017-05-05T12:08:41.702Z,3868
2017-05-05T12:09:41.720Z,3796
2017-05-05T12:11:56.383Z,3928
2017-05-05T12:12:41.790Z,4056
2017-05-05T12:13:41.813Z,4232
2017-05-05T12:14:41.534Z,4300
2017-05-05T12:15:41.866Z,4140
2017-05-05T12:16:41.886Z,3748
2017-05-05T12:17:41.906Z,3332
2017-05-05T12:18:41.929Z,3064
2017-05-05T12:19:41.955Z,2940
2017-05-05T12:20:56.599Z,2896
2017-05-05T12:21:42.002Z,2912
2017-05-05T12:22:42.022Z,2980
2017-05-05T12:23:56.668Z,3108
2017-05-05T12:24:41.772Z,3172
2017-05-05T12:25:42.100Z,3196
2017-05-05T12:26:56.736Z,3168
2017-05-05T12:27:42.142Z,3160
2017-05-05T12:28:42.172Z,3200
2017-05-05T12:29:42.192Z,3284
2017-05-05T12:30:41.910Z,3384
2017-05-05T12:31:42.236Z,3512
2017-05-05T12:32:41.958Z,3644
2017-05-05T12:33:41.675Z,3668
2017-05-05T12:34:42.010Z,3540
2017-05-05T12:35:56.949Z,3340
2017-05-05T12:36:42.051Z,3268
2017-05-05T12:37:42.379Z,3252
2017-05-05T12:38:42.400Z,3304
2017-05-05T12:39:42.431Z,3372
2017-05-05T12:40:42.447Z,3412
2017-05-05T12:41:42.477Z,3416
2017-05-05T12:42:42.495Z,3444
2017-05-05T12:44:42.545Z,3676
2017-05-05T12:45:42.571Z,3864
2017-05-05T12:46:42.288Z,4040
2017-05-05T12:47:42.614Z,4196
2017-05-05T12:48:42.636Z,4272
2017-05-05T12:49:42.658Z,4244
2017-05-05T12:50:42.682Z,4160
2017-05-05T12:51:42.706Z,4132
2017-05-05T12:52:57.042Z,4288
2017-05-05T12:53:42.457Z,4488
2017-05-05T12:54:57.393Z,4768
2017-05-05T12:55:42.801Z,4848
2017-05-05T12:56:42.825Z,4988
2017-05-05T12:57:42.847Z,5260
2017-05-05T12:58:57.495Z,5608
2017-05-05T12:59:42.900Z,5684
2017-05-05T13:01:42.947Z,5872
2017-05-05T13:02:57.588Z,6164
2017-05-05T13:03:42.991Z,6236
2017-05-05T13:04:43.013Z,6156
2017-05-05T13:05:43.043Z,5948
2017-05-05T13:06:43.062Z,5700
2017-05-05T13:07:42.476Z,5524
2017-05-05T13:08:57.724Z,5412
2017-05-05T13:09:43.128Z,5352
2017-05-05T13:10:43.157Z,5204
2017-05-05T13:11:43.184Z,5016
2017-05-05T13:13:43.226Z,4784
2017-05-05T13:14:57.564Z,4664
2017-05-05T13:15:43.275Z,4636
2017-05-05T13:16:43.297Z,4728
2017-05-05T13:17:43.330Z,4888
2017-05-05T13:18:43.347Z,5004
2017-05-05T13:19:43.369Z,4972
2017-05-05T13:20:43.398Z,4908
2017-05-05T13:21:58.033Z,4976
2017-05-05T13:22:43.742Z,5064
2017-05-05T13:23:43.463Z,5100
2017-05-05T13:24:58.104Z,5092
2017-05-05T13:25:57.825Z,4996
2017-05-05T13:26:58.153Z,4824
2017-05-05T13:27:43.558Z,4772
2017-05-05T13:28:43.580Z,4852
2017-05-05T13:29:43.604Z,4800
2017-05-05T13:30:58.246Z,4412
2017-05-05T13:31:43.362Z,4140
2017-05-05T13:32:43.678Z,3880
2017-05-05T13:33:43.398Z,3752
2017-05-05T13:34:43.727Z,3720
2017-05-05T13:35:43.452Z,3780
2017-05-05T13:36:58.088Z,3920
2017-05-05T13:37:43.896Z,4016
2017-05-05T13:38:43.821Z,4108
2017-05-05T13:39:58.460Z,4152
2017-05-05T13:40:43.562Z,4204
2017-05-05T13:41:44.200Z,4360
2017-05-05T13:42:58.527Z,4676
2017-05-05T13:44:43.970Z,5204
2017-05-05T13:47:44.134Z,5692
2017-05-05T13:48:44.059Z,5760
2017-05-05T13:49:44.080Z,5792
2017-05-05T13:50:44.106Z,5796
2017-05-05T13:51:58.190Z,5808
2017-05-05T13:52:44.151Z,5832
2017-05-05T13:53:44.204Z,5884
2017-05-05T13:54:58.866Z,6016
2017-05-05T13:55:43.921Z,6120
2017-05-05T13:56:44.448Z,6272
2017-05-05T13:58:59.063Z,6588
2017-05-05T13:59:58.987Z,6792
2017-05-05T14:01:58.685Z,7400
2017-05-05T14:02:44.089Z,7776
2017-05-05T14:03:44.418Z,7676
2017-05-05T14:04:44.440Z,7676
2017-05-05T14:05:44.468Z,7752
2017-05-05T14:06:44.493Z,7800
2017-05-05T14:07:44.511Z,7840
2017-05-05T14:08:44.537Z,7836
2017-05-05T14:09:44.562Z,7828
2017-05-05T14:10:59.208Z,7828
2017-05-05T14:11:59.227Z,7844
2017-05-05T14:12:44.643Z,7836
2017-05-05T14:13:44.689Z,7816
2017-05-05T14:14:58.997Z,7736
2017-05-05T14:15:44.707Z,7728
2017-05-05T14:17:44.754Z,7628
2017-05-05T14:18:44.780Z,7640
2017-05-05T14:19:44.804Z,7640
2017-05-05T14:20:44.523Z,7676
2017-05-05T14:21:44.856Z,7920
2017-05-05T14:22:44.571Z,8316
2017-05-05T14:24:59.546Z,8600
2017-05-05T14:25:44.955Z,8100
2017-05-05T14:26:44.973Z,7160
2017-05-05T14:27:44.997Z,6992
2017-05-05T14:28:45.024Z,6916
2017-05-05T14:29:45.055Z,7520
2017-05-05T14:30:45.072Z,7852
2017-05-05T14:32:45.119Z,6720
2017-05-05T14:33:59.765Z,6824
2017-05-05T14:34:45.171Z,6908
2017-05-05T14:35:45.199Z,7000
2017-05-05T14:36:45.223Z,6872
2017-05-05T14:37:45.245Z,6656
2017-05-05T14:38:45.272Z,6520
2017-05-05T14:39:45.295Z,6456
2017-05-05T14:40:45.319Z,6344
2017-05-05T14:41:45.341Z,6336
2017-05-05T14:42:45.367Z,6268
2017-05-05T14:43:45.395Z,6156
2017-05-05T14:44:45.422Z,6092
2017-05-05T14:46:00.062Z,5880
2017-05-05T14:46:45.475Z,5712
2017-05-05T14:47:45.198Z,5536
2017-05-05T14:48:45.212Z,5256
2017-05-05T14:50:00.161Z,4984
2017-05-05T14:50:45.267Z,4920